createdAt,value
2023-02-16T00:01:38.274Z,51.77
2023-02-16T00:04:20.379Z,49.70
2023-02-16T00:06:50.605Z,56.27
2023-02-16T00:09:20.885Z,53.97
2023-02-16T00:12:04.132Z,53.07
2023-02-16T00:14:36.292Z,57.97
2023-02-16T00:17:09.263Z,53.50
2023-02-16T00:19:41.166Z,50.47
2023-02-16T00:22:11.521Z,52.23
2023-02-16T00:24:41.357Z,50.60
2023-02-16T00:27:18.829Z,53.27
2023-02-16T00:29:48.610Z,53.20
2023-02-16T00:32:21.053Z,49.60
2023-02-16T00:34:50.923Z,50.07
2023-02-16T00:37:20.683Z,48.63
2023-02-16T00:39:50.525Z,50.93
2023-02-16T00:42:24.178Z,54.47
2023-02-16T00:44:57.182Z,55.67
2023-02-16T00:47:34.433Z,52.00
2023-02-16T00:50:04.241Z,52.67
2023-02-16T00:52:37.802Z,51.67
2023-02-16T00:55:11.081Z,52.13
2023-02-16T00:57:43.153Z,58.07
2023-02-16T01:00:19.886Z,57.17
2023-02-16T01:02:53.691Z,52.73
2023-02-16T01:05:23.840Z,52.07
2023-02-16T01:08:06.342Z,56.17
2023-02-16T01:10:50.020Z,50.70
2023-02-16T01:13:20.408Z,51.83
2023-02-16T01:15:50.226Z,48.53
2023-02-16T01:18:23.771Z,45.17
2023-02-16T01:20:53.555Z,48.67
2023-02-16T01:23:23.356Z,51.17
2023-02-16T01:25:53.207Z,50.17
2023-02-16T01:28:26.186Z,49.33
2023-02-16T01:30:56.816Z,50.67
2023-02-16T01:33:29.329Z,49.10
2023-02-16T01:36:00.115Z,45.17
2023-02-16T01:38:31.801Z,47.70
2023-02-16T01:41:22.666Z,49.47
2023-02-16T01:43:58.935Z,47.07
2023-02-16T01:46:39.555Z,44.20
2023-02-16T01:49:16.285Z,42.90
2023-02-16T01:51:54.534Z,45.80
2023-02-16T01:54:35.693Z,48.37
2023-02-16T01:57:12.931Z,46.50
2023-02-16T02:00:16.232Z,49.73
2023-02-16T02:02:49.595Z,44.80
2023-02-16T02:05:36.657Z,48.70
2023-02-16T02:08:19.753Z,47.87
2023-02-16T02:11:00.803Z,46.47
2023-02-16T02:13:35.874Z,52.27
2023-02-16T02:16:08.433Z,44.87
2023-02-16T02:18:38.236Z,44.73
2023-02-16T02:21:40.638Z,47.57
2023-02-16T02:24:32.580Z,55.57
2023-02-16T02:27:25.506Z,51.77
2023-02-16T02:30:13.519Z,50.87
2023-02-16T02:33:06.410Z,50.77
2023-02-16T02:35:47.193Z,47.17
2023-02-16T02:38:24.242Z,50.33
2023-02-16T02:41:03.178Z,49.63
2023-02-16T02:43:41.663Z,52.33
2023-02-16T02:46:16.080Z,52.97
2023-02-16T02:48:45.923Z,48.10
2023-02-16T02:51:33.853Z,50.17
2023-02-16T02:54:20.060Z,50.43
2023-02-16T02:57:07.779Z,52.63
2023-02-16T02:59:54.903Z,51.40
2023-02-16T03:02:27.163Z,47.50
2023-02-16T03:05:00.407Z,47.83
2023-02-16T03:07:43.785Z,46.93
2023-02-16T03:10:31.649Z,47.03
2023-02-16T03:13:03.608Z,47.87
2023-02-16T03:15:37.710Z,45.33
2023-02-16T03:18:23.029Z,54.17
2023-02-16T03:21:06.030Z,51.43
2023-02-16T03:23:49.302Z,49.33
2023-02-16T03:26:33.406Z,50.27
2023-02-16T03:29:26.693Z,55.63
2023-02-16T03:32:00.102Z,49.80
2023-02-16T03:34:32.106Z,51.83
2023-02-16T03:37:03.306Z,51.13
2023-02-16T03:39:54.646Z,52.27
2023-02-16T03:42:26.028Z,47.40
2023-02-16T03:44:55.964Z,49.33
2023-02-16T03:47:28.335Z,53.27
2023-02-16T03:49:58.158Z,48.60
2023-02-16T03:52:27.926Z,51.73
2023-02-16T03:54:57.675Z,54.50
2023-02-16T03:57:27.527Z,52.70
2023-02-16T03:59:59.277Z,50.10
2023-02-16T04:02:32.257Z,52.77
2023-02-16T04:05:02.086Z,54.53
2023-02-16T04:07:31.987Z,52.37
2023-02-16T04:10:01.889Z,57.53
2023-02-16T04:12:37.965Z,52.13
2023-02-16T04:15:11.147Z,45.77
2023-02-16T04:17:43.758Z,52.50
2023-02-16T04:20:17.524Z,50.13
2023-02-16T04:22:47.584Z,49.53
2023-02-16T04:25:18.740Z,49.83
2023-02-16T04:27:49.513Z,52.30
2023-02-16T04:30:22.043Z,55.07
2023-02-16T04:32:54.716Z,53.87
2023-02-16T04:35:25.429Z,55.60
2023-02-16T04:37:55.237Z,50.60
2023-02-16T04:40:25.245Z,52.23
2023-02-16T04:42:55.006Z,55.27
2023-02-16T04:45:24.766Z,56.83
2023-02-16T04:47:57.134Z,47.00
2023-02-16T04:50:26.907Z,48.40
2023-02-16T04:52:56.702Z,56.40
2023-02-16T04:55:26.472Z,53.43
2023-02-16T04:57:56.222Z,52.33
2023-02-16T05:00:26.076Z,52.10
2023-02-16T05:02:58.436Z,54.13
2023-02-16T05:05:28.223Z,50.17
2023-02-16T05:07:57.950Z,54.00
2023-02-16T05:10:27.753Z,54.00
2023-02-16T05:13:09.959Z,52.33
2023-02-16T05:15:39.830Z,52.93
2023-02-16T05:18:12.237Z,56.63
2023-02-16T05:20:54.409Z,55.87
2023-02-16T05:23:24.239Z,61.07
2023-02-16T05:25:54.057Z,51.60
2023-02-16T05:28:23.915Z,55.97
2023-02-16T05:30:53.742Z,56.40
2023-02-16T05:33:26.757Z,55.50
2023-02-16T05:35:56.502Z,55.77
2023-02-16T05:38:26.719Z,53.10
2023-02-16T05:40:56.475Z,57.93
2023-02-16T05:43:26.214Z,57.33
2023-02-16T05:45:56.040Z,55.03
2023-02-16T05:48:28.608Z,57.00
2023-02-16T05:50:58.359Z,55.97
2023-02-16T05:53:28.167Z,54.20
2023-02-16T05:55:57.903Z,54.50
2023-02-16T05:58:27.661Z,57.87
2023-02-16T06:00:58.141Z,55.60
2023-02-16T06:03:30.767Z,56.30
2023-02-16T06:06:03.164Z,52.53
2023-02-16T06:08:33.674Z,55.63
2023-02-16T06:11:03.725Z,55.33
2023-02-16T06:13:33.635Z,52.87
2023-02-16T06:16:03.491Z,50.17
2023-02-16T06:18:35.921Z,53.27
2023-02-16T06:21:05.990Z,52.10
2023-02-16T06:23:35.858Z,57.70
2023-02-16T06:26:05.690Z,54.87
2023-02-16T06:28:35.426Z,55.53
2023-02-16T06:31:05.440Z,55.10
2023-02-16T06:33:38.154Z,53.63
2023-02-16T06:36:09.522Z,59.03
2023-02-16T06:38:39.494Z,55.27
2023-02-16T06:41:09.658Z,54.00
2023-02-16T06:43:39.443Z,55.40
2023-02-16T06:46:09.306Z,56.50
2023-02-16T06:48:41.666Z,51.87
2023-02-16T06:51:11.433Z,53.80
2023-02-16T06:53:41.197Z,52.37
2023-02-16T06:56:11.008Z,50.30
2023-02-16T06:58:40.966Z,52.97
2023-02-16T07:01:10.922Z,57.07
2023-02-16T07:03:43.420Z,53.30
2023-02-16T07:06:13.159Z,54.53
2023-02-16T07:08:43.033Z,61.63
2023-02-16T07:11:12.860Z,59.13
2023-02-16T07:13:42.638Z,58.17
2023-02-16T07:16:12.672Z,55.73
2023-02-16T07:18:46.361Z,60.47
2023-02-16T07:21:16.389Z,56.53
2023-02-16T07:23:46.511Z,59.97
2023-02-16T07:26:16.341Z,52.00
2023-02-16T07:28:49.030Z,54.40
2023-02-16T07:31:20.081Z,55.73
2023-02-16T07:33:52.522Z,59.77
2023-02-16T07:36:27.758Z,61.93
2023-02-16T07:38:57.694Z,62.20
2023-02-16T07:41:27.653Z,63.03
2023-02-16T07:43:57.504Z,59.63
2023-02-16T07:46:27.255Z,62.03
2023-02-16T07:48:59.796Z,55.53
2023-02-16T07:51:33.189Z,62.37
2023-02-16T07:54:03.683Z,60.10
2023-02-16T07:56:35.068Z,58.03
2023-02-16T07:59:08.063Z,55.93
2023-02-16T08:01:38.067Z,57.10
2023-02-16T08:04:10.751Z,55.43
2023-02-16T08:06:41.918Z,60.70
2023-02-16T08:09:11.742Z,56.50
2023-02-16T08:11:41.585Z,56.17
2023-02-16T08:14:11.458Z,58.37
2023-02-16T08:16:41.686Z,59.63
2023-02-16T08:19:14.131Z,57.83
2023-02-16T08:21:47.528Z,63.87
2023-02-16T08:24:17.290Z,59.57
2023-02-16T08:26:52.272Z,62.57
2023-02-16T08:29:22.511Z,61.57
2023-02-16T08:31:58.899Z,62.90
2023-02-16T08:34:33.848Z,61.13
2023-02-16T08:37:04.758Z,62.67
2023-02-16T08:39:37.181Z,60.23
2023-02-16T08:42:08.565Z,61.03
2023-02-16T08:44:38.398Z,59.40
2023-02-16T08:47:09.587Z,62.67
2023-02-16T08:49:42.134Z,60.30
2023-02-16T08:52:12.537Z,56.27
2023-02-16T08:54:42.969Z,58.77
2023-02-16T08:57:12.732Z,62.97
2023-02-16T08:59:42.519Z,57.40
2023-02-16T09:02:13.700Z,61.57
2023-02-16T09:04:48.540Z,61.27
2023-02-16T09:07:20.760Z,57.27
2023-02-16T09:09:51.460Z,60.53
2023-02-16T09:12:24.524Z,56.80
2023-02-16T09:14:57.557Z,64.07
2023-02-16T09:17:28.240Z,68.77
2023-02-16T09:20:02.104Z,66.60
2023-02-16T09:22:34.432Z,65.47
2023-02-16T09:25:04.360Z,61.47
2023-02-16T09:27:34.880Z,62.90
2023-02-16T09:30:06.117Z,65.43
2023-02-16T09:32:36.022Z,65.90
2023-02-16T09:35:09.494Z,66.80
2023-02-16T09:37:39.283Z,70.43
2023-02-16T09:40:10.936Z,63.47
2023-02-16T09:42:56.400Z,70.17
2023-02-16T09:45:29.984Z,66.33
2023-02-16T09:48:03.630Z,64.53
2023-02-16T09:50:53.479Z,66.27
2023-02-16T09:53:31.825Z,60.70
2023-02-16T09:56:11.251Z,64.07
2023-02-16T09:58:50.895Z,60.17
2023-02-16T10:01:38.919Z,64.17
2023-02-16T10:04:32.292Z,61.70
2023-02-16T10:07:24.374Z,60.03
2023-02-16T10:10:06.810Z,60.63
2023-02-16T10:12:42.868Z,61.77
2023-02-16T10:15:20.688Z,57.73
2023-02-16T10:17:57.712Z,64.90
2023-02-16T10:20:33.547Z,62.80
2023-02-16T10:23:13.668Z,55.70
2023-02-16T10:25:49.074Z,64.57
2023-02-16T10:28:22.854Z,59.87
2023-02-16T10:31:00.441Z,59.77
2023-02-16T10:33:43.274Z,56.60
2023-02-16T10:36:25.978Z,64.90
2023-02-16T10:39:13.636Z,56.67
2023-02-16T10:41:49.817Z,54.90
2023-02-16T10:44:24.826Z,60.50
2023-02-16T10:47:00.579Z,57.70
2023-02-16T10:49:33.795Z,55.97
2023-02-16T10:52:06.629Z,58.20
2023-02-16T10:54:42.098Z,58.97
2023-02-16T10:57:27.133Z,56.60
2023-02-16T11:00:02.305Z,56.40
2023-02-16T11:02:38.478Z,61.63
2023-02-16T11:05:38.277Z,51.27
2023-02-16T11:08:15.406Z,58.70
2023-02-16T11:10:50.688Z,59.43
2023-02-16T11:13:30.251Z,53.10
2023-02-16T11:16:03.155Z,59.70
2023-02-16T11:18:42.364Z,59.73
2023-02-16T11:21:56.605Z,61.90
2023-02-16T11:24:35.432Z,60.93
2023-02-16T11:27:09.956Z,65.03
2023-02-16T11:29:43.311Z,65.53
2023-02-16T11:32:14.985Z,65.27
2023-02-16T11:34:47.762Z,65.60
2023-02-16T11:37:22.909Z,61.70
2023-02-16T11:40:00.481Z,64.90
2023-02-16T11:42:36.545Z,67.50
2023-02-16T11:45:09.974Z,67.10
2023-02-16T11:47:43.093Z,59.20
2023-02-16T11:50:23.353Z,68.03
2023-02-16T11:52:55.069Z,71.67
2023-02-16T11:55:37.844Z,68.03
2023-02-16T11:58:19.257Z,61.67
2023-02-16T12:01:02.720Z,66.97
2023-02-16T12:04:13.796Z,64.27
2023-02-16T12:06:58.623Z,65.27
2023-02-16T12:09:42.605Z,63.03
2023-02-16T12:12:20.801Z,65.00
2023-02-16T12:15:03.071Z,65.90
2023-02-16T12:17:55.048Z,63.97
2023-02-16T12:20:42.303Z,63.80
2023-02-16T12:23:24.063Z,59.40
2023-02-16T12:26:07.221Z,59.93
2023-02-16T12:28:45.548Z,53.57
2023-02-16T12:31:26.423Z,57.53
2023-02-16T12:34:04.132Z,56.00
2023-02-16T12:36:50.627Z,53.10
2023-02-16T12:39:25.266Z,49.77
2023-02-16T12:42:18.004Z,51.37
2023-02-16T12:44:53.607Z,52.77
2023-02-16T12:47:38.151Z,48.00
2023-02-16T12:50:17.119Z,48.63
2023-02-16T12:52:57.170Z,47.27
2023-02-16T12:55:38.381Z,52.97
2023-02-16T12:58:28.311Z,46.63
2023-02-16T13:01:05.082Z,41.73
2023-02-16T13:03:41.097Z,43.33
2023-02-16T13:06:18.266Z,42.43
2023-02-16T13:08:54.623Z,40.30
2023-02-16T13:11:28.604Z,36.57
2023-02-16T13:14:04.574Z,34.93
2023-02-16T13:16:46.421Z,36.93
2023-02-16T13:19:17.555Z,34.60
2023-02-16T13:22:20.261Z,37.10
2023-02-16T13:25:04.785Z,37.27
2023-02-16T13:27:47.604Z,34.13
2023-02-16T13:30:42.193Z,35.37
2023-02-16T13:33:29.626Z,34.30
2023-02-16T13:36:28.167Z,35.43
2023-02-16T13:39:25.499Z,34.90
2023-02-16T13:42:09.831Z,35.33
2023-02-16T13:44:44.852Z,31.80
2023-02-16T13:47:19.400Z,29.17
2023-02-16T13:49:52.133Z,32.47
2023-02-16T13:52:34.181Z,32.00
2023-02-16T13:55:08.605Z,32.37
2023-02-16T13:58:02.032Z,28.57
2023-02-16T14:00:34.978Z,28.90
2023-02-16T14:03:11.042Z,26.53
2023-02-16T14:05:46.234Z,28.03
2023-02-16T14:08:27.758Z,32.80
2023-02-16T14:11:12.345Z,34.90
2023-02-16T14:13:53.485Z,35.37
2023-02-16T14:16:35.314Z,35.07
2023-02-16T14:19:19.741Z,37.83
2023-02-16T14:22:03.474Z,33.10
2023-02-16T14:24:35.901Z,33.83
2023-02-16T14:27:07.704Z,29.13
2023-02-16T14:29:42.034Z,32.53
2023-02-16T14:32:25.953Z,31.20
2023-02-16T14:34:58.966Z,29.60
2023-02-16T14:37:38.660Z,33.33
2023-02-16T14:40:16.873Z,32.37
2023-02-16T14:42:54.004Z,32.87
2023-02-16T14:45:48.759Z,30.40
2023-02-16T14:48:33.011Z,35.03
2023-02-16T14:51:37.643Z,28.70
2023-02-16T14:54:39.915Z,37.90
2023-02-16T14:57:16.788Z,32.43
2023-02-16T14:59:53.270Z,38.63
2023-02-16T15:02:33.987Z,33.50
2023-02-16T15:05:19.194Z,36.63
2023-02-16T15:07:50.736Z,36.07
2023-02-16T15:10:29.363Z,36.77
2023-02-16T15:12:59.835Z,34.90
2023-02-16T15:15:38.017Z,34.20
2023-02-16T15:18:17.870Z,35.93
2023-02-16T15:20:51.247Z,35.43
2023-02-16T15:23:23.147Z,32.00
2023-02-16T15:26:01.091Z,28.43
2023-02-16T15:28:35.269Z,30.43
2023-02-16T15:31:08.268Z,33.07
2023-02-16T15:33:40.607Z,31.90
2023-02-16T15:36:13.857Z,32.77
2023-02-16T15:38:57.009Z,34.97
2023-02-16T15:41:33.801Z,36.57
2023-02-16T15:44:05.975Z,37.00
2023-02-16T15:46:37.426Z,31.53
2023-02-16T15:49:15.126Z,39.20
2023-02-16T15:51:45.731Z,37.00
2023-02-16T15:54:26.252Z,39.53
2023-02-16T15:57:04.960Z,37.47
2023-02-16T15:59:38.725Z,34.50
2023-02-16T16:02:17.579Z,35.40
2023-02-16T16:04:54.969Z,35.67
2023-02-16T16:07:31.567Z,34.87
2023-02-16T16:10:03.404Z,37.70
2023-02-16T16:12:36.051Z,35.03
2023-02-16T16:15:07.118Z,37.10
2023-02-16T16:17:41.651Z,36.70
2023-02-16T16:20:30.664Z,39.37
2023-02-16T16:23:04.826Z,37.63
2023-02-16T16:25:43.464Z,35.43
2023-02-16T16:28:38.030Z,40.10
2023-02-16T16:31:12.348Z,38.00
2023-02-16T16:34:04.794Z,36.90
2023-02-16T16:36:36.965Z,37.20
2023-02-16T16:39:29.310Z,36.77
2023-02-16T16:42:31.297Z,41.23
2023-02-16T16:45:37.686Z,41.73
2023-02-16T16:48:13.376Z,38.57
2023-02-16T16:50:43.361Z,36.60
2023-02-16T16:53:45.969Z,38.93
2023-02-16T16:56:18.956Z,36.67
2023-02-16T16:58:52.712Z,33.17
2023-02-16T17:01:25.961Z,32.50
2023-02-16T17:03:56.122Z,32.53
2023-02-16T17:06:27.319Z,32.63
2023-02-16T17:08:57.738Z,31.03
2023-02-16T17:11:30.868Z,31.60
2023-02-16T17:14:03.102Z,30.93
2023-02-16T17:16:40.254Z,30.57
2023-02-16T17:19:12.870Z,31.80
2023-02-16T17:21:42.919Z,29.67
2023-02-16T17:24:13.029Z,30.10
2023-02-16T17:26:45.578Z,31.90
2023-02-16T17:29:16.320Z,29.23
2023-02-16T17:31:50.554Z,28.63
2023-02-16T17:34:20.662Z,27.83
2023-02-16T17:36:50.978Z,28.67
2023-02-16T17:39:21.200Z,29.30
2023-02-16T17:41:51.435Z,28.83
2023-02-16T17:44:23.829Z,28.53
2023-02-16T17:46:57.123Z,28.70
2023-02-16T17:49:28.906Z,27.87
2023-02-16T17:51:58.872Z,33.13
2023-02-16T17:54:28.823Z,29.17
2023-02-16T17:56:58.705Z,34.80
2023-02-16T17:59:30.306Z,33.83
2023-02-16T18:02:03.566Z,33.83
2023-02-16T18:04:33.589Z,34.67
2023-02-16T18:07:03.418Z,36.50
2023-02-16T18:09:33.196Z,35.80
2023-02-16T18:12:02.931Z,35.20
2023-02-16T18:14:32.798Z,36.37
2023-02-16T18:17:07.044Z,35.63
2023-02-16T18:19:37.218Z,33.47
2023-02-16T18:22:07.007Z,34.13
2023-02-16T18:24:37.100Z,36.30
2023-02-16T18:27:07.325Z,36.93
2023-02-16T18:29:37.455Z,36.30
2023-02-16T18:32:09.902Z,33.67
2023-02-16T18:34:39.940Z,34.27
2023-02-16T18:37:09.843Z,37.40
2023-02-16T18:39:41.023Z,37.33
2023-02-16T18:42:11.280Z,34.63
2023-02-16T18:44:41.341Z,32.20
2023-02-16T18:47:14.228Z,35.00
2023-02-16T18:49:44.758Z,34.97
2023-02-16T18:52:15.115Z,33.97
2023-02-16T18:54:47.971Z,30.23
2023-02-16T18:57:17.991Z,33.53
2023-02-16T18:59:47.922Z,31.67
2023-02-16T19:02:20.486Z,30.93
2023-02-16T19:04:50.502Z,28.30
2023-02-16T19:07:21.972Z,27.77
2023-02-16T19:09:52.101Z,28.73
2023-02-16T19:12:22.194Z,27.97
2023-02-16T19:14:52.279Z,28.47
2023-02-16T19:17:24.886Z,31.00
2023-02-16T19:19:54.798Z,28.70
2023-02-16T19:22:25.036Z,26.60
2023-02-16T19:24:55.869Z,24.00
2023-02-16T19:27:25.886Z,26.30
2023-02-16T19:29:55.858Z,24.83
2023-02-16T19:32:28.691Z,26.90
2023-02-16T19:34:58.719Z,25.03
2023-02-16T19:37:28.729Z,24.03
2023-02-16T19:39:58.745Z,28.37
2023-02-16T19:42:28.867Z,24.53
2023-02-16T19:44:58.988Z,24.93
2023-02-16T19:47:31.607Z,25.37
2023-02-16T19:50:01.698Z,23.10
2023-02-16T19:52:31.702Z,22.73
2023-02-16T19:55:01.643Z,24.43
2023-02-16T19:57:31.635Z,21.47
2023-02-16T20:00:03.312Z,21.53
2023-02-16T20:02:35.905Z,23.00
2023-02-16T20:05:06.935Z,21.07
2023-02-16T20:07:37.545Z,20.27
2023-02-16T20:10:08.304Z,21.13
2023-02-16T20:12:38.295Z,20.73
2023-02-16T20:15:09.038Z,21.30
2023-02-16T20:17:41.627Z,21.13
2023-02-16T20:20:12.220Z,20.33
2023-02-16T20:25:42.850Z,19.87
2023-02-16T20:28:15.048Z,18.83
2023-02-16T20:30:45.279Z,20.10
2023-02-16T20:33:19.667Z,19.97
2023-02-16T20:35:49.915Z,17.80
2023-02-16T20:38:19.741Z,17.60
2023-02-16T20:40:49.540Z,17.07
2023-02-16T20:43:21.087Z,17.97
2023-02-16T20:45:51.268Z,17.10
2023-02-16T20:48:23.626Z,17.07
2023-02-16T20:50:56.997Z,16.80
2023-02-16T20:53:27.367Z,16.03
2023-02-16T20:56:04.713Z,16.87
2023-02-16T20:58:34.961Z,17.07
2023-02-16T21:01:05.163Z,17.10
2023-02-16T21:03:37.570Z,16.30
2023-02-16T21:06:07.874Z,16.40
2023-02-16T21:08:37.739Z,16.30
2023-02-16T21:11:08.486Z,15.37
2023-02-16T21:13:39.647Z,16.53
2023-02-16T21:16:10.696Z,15.53
2023-02-16T21:18:43.736Z,15.27
2023-02-16T21:21:15.930Z,15.53
2023-02-16T21:23:46.860Z,14.20
2023-02-16T21:26:17.022Z,16.63
2023-02-16T21:28:47.020Z,14.70
2023-02-16T21:31:20.954Z,15.40
2023-02-16T21:33:53.461Z,14.70
2023-02-16T21:36:26.405Z,15.00
2023-02-16T21:38:56.647Z,14.70
2023-02-16T21:41:26.086Z,14.43
2023-02-16T21:43:57.800Z,14.03
2023-02-16T21:46:28.429Z,14.63
2023-02-16T21:48:59.198Z,13.90
2023-02-16T21:51:31.301Z,13.00
2023-02-16T21:54:02.013Z,12.47
2023-02-16T21:56:33.514Z,12.37
2023-02-16T21:59:08.068Z,10.97
2023-02-16T22:01:42.087Z,13.23
2023-02-16T22:04:16.420Z,13.43
2023-02-16T22:06:48.411Z,14.83
2023-02-16T22:09:22.609Z,13.53
2023-02-16T22:11:53.368Z,12.90
2023-02-16T22:14:23.470Z,12.40
2023-02-16T22:16:53.678Z,15.00
2023-02-16T22:19:26.140Z,13.70
2023-02-16T22:21:55.962Z,14.50
2023-02-16T22:24:25.739Z,13.17
2023-02-16T22:26:55.508Z,12.23
2023-02-16T22:29:25.263Z,11.63
2023-02-16T22:31:55.061Z,13.73
2023-02-16T22:34:27.447Z,13.30
2023-02-16T22:36:57.218Z,13.17
2023-02-16T22:39:26.975Z,14.30
2023-02-16T22:41:56.708Z,13.80
2023-02-16T22:44:26.479Z,13.70
2023-02-16T22:46:56.991Z,13.80
2023-02-16T22:49:29.364Z,14.93
2023-02-16T22:51:59.171Z,14.50
2023-02-16T22:54:28.914Z,16.00
2023-02-16T22:56:58.718Z,14.83
2023-02-16T22:59:28.484Z,16.37
2023-02-16T23:01:58.274Z,13.33
2023-02-16T23:04:30.642Z,15.67
2023-02-16T23:07:00.406Z,15.20
2023-02-16T23:09:30.212Z,15.70
2023-02-16T23:11:59.952Z,14.63
2023-02-16T23:14:29.732Z,15.47
2023-02-16T23:16:59.531Z,17.10
2023-02-16T23:19:32.605Z,20.50
2023-02-16T23:22:02.776Z,17.23
2023-02-16T23:24:32.641Z,20.47
2023-02-16T23:27:05.842Z,17.57
2023-02-16T23:29:35.613Z,19.20
2023-02-16T23:32:05.411Z,18.10
2023-02-16T23:34:37.923Z,21.20
2023-02-16T23:37:07.836Z,20.87
2023-02-16T23:39:37.760Z,21.63
2023-02-16T23:42:08.008Z,21.63
2023-02-16T23:44:37.992Z,24.13
2023-02-16T23:47:08.248Z,25.60
2023-02-16T23:49:40.798Z,25.77
2023-02-16T23:52:10.715Z,28.70
2023-02-16T23:54:40.630Z,27.97
2023-02-16T23:57:11.179Z,28.37
2023-02-16T23:59:41.796Z,27.97
